EmailTwitter


Observations de surface / Royaume-Uni / EGLL (03772)

Régions: Québec | Canada | États-Unis | Europe | France | UK | Ailleurs
Station
Affichage
Infos & localisation pour EGLL (03772) | Aide pour décoder les METARs

Observations prises le 2018-05-25 à 10H20 UTC à LONDON/HEATHROW, UK (EGLL)

Etat du ciel: couvert.

Température: 15.0 Celsius

Point de rosée: 12.0 Celsius

Humidité relative: 82%

Vents: Variable à 6 km/h ou 3 noeuds.

Pression au niveau moyen de la mer: 101.80 kilopascals.

Visibilité horizontale: 5.59 milles terrestres ou 8.95 kilomètres.

Hauteur du plafond: 366 mètres ( 1200 pieds ).

Observation METAR:

EGLL 251020Z AUTO VRB03KT 9000 OVC012 15/12 Q1018 BECMG BKN015=